Forside
METAR-TAF:

METAR-TAF

Lufthavne :

Land O' Lakes, Wisconsin, USA

Breddekreds: 46-09-14N, længdekreds: 089-12-43W, højde: 520 m

Aktuelle vejr

Denne rapport blev lavet for 14 minutter siden, kl. 18:55 UTC
Vind 5 kt fra nord
Temperatur -7°C
Fugtighed 93%
Tryk 998 hPa
Sigt: 1.2 km
Overskyet i en højde af 500 ft
let sne

METAR: KLNL 091855Z AUTO 35005KT 3/4SM -SN OVC005 M07/M08 A2946 RMK AO2 T10681082

Tid: 13:09 (19:09 UTC)


TAF: fraværende

Vejrobservationer og prognoser fra mere end 4000 lufthavne (METAR og TAF).

De gule og røde prikker repræsenterer de meteorologiske stationer.

Flyt musen over at se navnet på stationen.

Så klik over at se vejr observationer og prognoser.

At skifte det kort: Klik på de grønne knapper med et sort kors for at zoome ind; på den grønne knap med en bindestreg for at zoome ud; eller på de grønne pile for tilstødende kort.


METAR-TAF: